Nejdéle needitované stránky

Z GeoWiki
Přejít na: navigace, hledání

Zobrazuji 50 výsledků počínaje od 1.

Ukázat (50 předchozích | 50 následujících) (20 | 50 | 100 | 250 | 500).

  1. Aktivační kód‏‎ (25. 11. 2008, 20:52)
  2. Co dělat, když jsem ve FAQ nenašel svojí otázku‏‎ (25. 11. 2008, 20:52)
  3. BYOP‏‎ (25. 11. 2008, 20:52)
  4. Aktivace travelbugu nebo geocoinu‏‎ (25. 11. 2008, 20:52)
  5. GPSBabel‏‎ (25. 11. 2008, 20:52)
  6. DNF‏‎ (25. 11. 2008, 20:52)
  7. FTF‏‎ (25. 11. 2008, 20:52)
  8. DEM‏‎ (25. 11. 2008, 20:52)
  9. Geocache Navigator‏‎ (25. 11. 2008, 20:52)
  10. Geoid‏‎ (25. 11. 2008, 20:52)
  11. Garmin Mobile XT‏‎ (25. 11. 2008, 20:52)
  12. Geografie obecně‏‎ (25. 11. 2008, 20:52)
  13. Geocoin-postup při pohřešování mince či TB‏‎ (25. 11. 2008, 20:52)
  14. Google Maps Mobile‏‎ (25. 11. 2008, 20:52)
  15. LOC‏‎ (25. 11. 2008, 20:52)
  16. Mapsource‏‎ (25. 11. 2008, 20:52)
  17. Mudla‏‎ (25. 11. 2008, 20:52)
  18. Mapa‏‎ (25. 11. 2008, 20:52)
  19. POI‏‎ (25. 11. 2008, 20:52)
  20. Převod souřadnic‏‎ (25. 11. 2008, 20:52)
  21. Spoiler‏‎ (25. 11. 2008, 20:52)
  22. S-JTSK‏‎ (25. 11. 2008, 20:52)
  23. TNLN‏‎ (25. 11. 2008, 20:52)
  24. Souřadnicové systémy‏‎ (25. 11. 2008, 20:52)
  25. Touratech Quo Vadis‏‎ (25. 11. 2008, 20:52)
  26. User grid‏‎ (25. 11. 2008, 20:52)
  27. Výroba vlastní průhledné mapy pro Garmin‏‎ (25. 11. 2008, 20:52)
  28. Firefox‏‎ (25. 11. 2008, 21:23)
  29. KML‏‎ (25. 11. 2008, 21:23)
  30. Co znamená zkratka "..."‏‎ (25. 11. 2008, 21:23)
  31. Map Datum‏‎ (25. 11. 2008, 21:28)
  32. M3‏‎ (26. 11. 2008, 05:45)
  33. Tracking Number‏‎ (26. 11. 2008, 05:45)
  34. Seznam zkratek‏‎ (26. 11. 2008, 19:36)
  35. Souřadnice‏‎ (18. 1. 2009, 07:59)
  36. GreaseMonkey‏‎ (2. 3. 2009, 03:04)
  37. Drive-in‏‎ (3. 3. 2009, 14:40)
  38. Popis‏‎ (3. 3. 2009, 14:44)
  39. Nivelační bod‏‎ (5. 5. 2009, 10:09)
  40. Šifrování (geocaching.com)‏‎ (13. 7. 2009, 08:54)
  41. Navigace - Azimuth, Bearing, Course, Heading‏‎ (1. 10. 2009, 19:49)
  42. Did Not Find‏‎ (12. 11. 2009, 21:05)
  43. Diplomovaný kačer‏‎ (13. 11. 2009, 15:42)
  44. UTM‏‎ (23. 11. 2009, 19:54)
  45. Geolutin‏‎ (26. 11. 2009, 14:24)
  46. Formát souřadnice‏‎ (7. 12. 2009, 21:53)
  47. Nápověda‏‎ (28. 1. 2010, 14:49)
  48. WGS-84‏‎ (5. 3. 2010, 09:57)
  49. Geokrtek‏‎ (18. 3. 2010, 09:13)
  50. Obrázky‏‎ (11. 6. 2010, 08:59)

Ukázat (50 předchozích | 50 následujících) (20 | 50 | 100 | 250 | 500).